createdAt,value
2022-12-19T00:04:09.955Z,19.30
2022-12-19T00:09:12.970Z,19.95
2022-12-19T00:14:15.089Z,20.12
2022-12-19T00:19:17.085Z,18.60
2022-12-19T00:24:21.482Z,18.80
2022-12-19T00:29:23.945Z,19.50
2022-12-19T00:34:26.056Z,18.23
2022-12-19T00:39:28.066Z,18.33
2022-12-19T00:44:30.073Z,21.37
2022-12-19T00:49:32.095Z,19.30
2022-12-19T00:54:35.640Z,18.73
2022-12-19T00:59:37.792Z,19.20
2022-12-19T01:04:41.690Z,17.65
2022-12-19T01:09:44.202Z,17.63
2022-12-19T01:14:48.163Z,18.87
2022-12-19T01:19:50.137Z,19.40
2022-12-19T01:24:52.162Z,18.10
2022-12-19T01:29:54.235Z,17.47
2022-12-19T01:34:56.517Z,18.15
2022-12-19T01:39:58.510Z,18.12
2022-12-19T01:45:13.400Z,17.47
2022-12-19T01:50:20.959Z,17.90
2022-12-19T01:55:23.433Z,18.75
2022-12-19T02:00:25.507Z,19.30
2022-12-19T02:05:27.723Z,19.50
2022-12-19T02:10:29.835Z,20.02
2022-12-19T02:15:41.536Z,19.33
2022-12-19T02:20:52.001Z,18.50
2022-12-19T02:26:12.129Z,19.45
2022-12-19T02:31:33.398Z,19.90
2022-12-19T02:36:42.647Z,21.37
2022-12-19T02:41:55.108Z,21.17
2022-12-19T02:47:00.712Z,20.80
2022-12-19T02:52:33.576Z,20.37
2022-12-19T02:58:05.958Z,20.23
2022-12-19T03:03:37.247Z,19.45
2022-12-19T03:09:08.519Z,18.47
2022-12-19T03:14:15.991Z,19.10
2022-12-19T03:19:18.176Z,19.05
2022-12-19T03:24:20.324Z,18.83
2022-12-19T03:29:49.863Z,18.70
2022-12-19T03:35:10.907Z,21.05
2022-12-19T03:40:18.045Z,20.12
2022-12-19T03:45:40.447Z,19.60
2022-12-19T03:50:59.383Z,21.48
2022-12-19T03:56:11.270Z,18.33
2022-12-19T04:01:13.944Z,20.70
2022-12-19T04:06:17.029Z,20.03
2022-12-19T04:11:20.618Z,19.87
2022-12-19T04:16:22.592Z,20.85
2022-12-19T04:21:32.069Z,19.60
2022-12-19T04:26:36.610Z,19.85
2022-12-19T04:31:39.348Z,20.45
2022-12-19T04:36:41.414Z,19.30
2022-12-19T04:41:43.484Z,20.35
2022-12-19T04:46:45.603Z,22.25
2022-12-19T04:51:47.712Z,20.30
2022-12-19T04:56:49.724Z,20.30
2022-12-19T05:01:51.878Z,20.30
2022-12-19T05:06:53.976Z,20.10
2022-12-19T05:11:55.984Z,20.13
2022-12-19T05:17:01.547Z,20.37
2022-12-19T05:22:04.198Z,21.30
2022-12-19T05:27:07.445Z,21.33
2022-12-19T05:32:09.501Z,21.67
2022-12-19T05:37:11.529Z,20.35
2022-12-19T05:42:13.871Z,21.00
2022-12-19T05:47:15.891Z,22.70
2022-12-19T05:52:17.995Z,24.15
2022-12-19T05:57:20.154Z,23.08
2022-12-19T06:02:22.813Z,21.63
2022-12-19T06:07:24.992Z,21.37
2022-12-19T06:12:27.081Z,21.65
2022-12-19T06:17:29.092Z,21.87
2022-12-19T06:22:31.516Z,23.70
2022-12-19T06:27:33.858Z,21.52
2022-12-19T06:32:38.048Z,21.43
2022-12-19T06:37:40.439Z,20.83
2022-12-19T06:42:42.460Z,23.38
2022-12-19T06:47:44.469Z,21.10
2022-12-19T06:52:46.542Z,22.20
2022-12-19T06:57:48.684Z,23.27
2022-12-19T07:02:52.290Z,21.20
2022-12-19T07:07:54.379Z,18.97
2022-12-19T07:12:56.864Z,20.67
2022-12-19T07:18:00.101Z,20.08
2022-12-19T07:23:04.086Z,20.00
2022-12-19T07:28:07.628Z,20.10
2022-12-19T07:33:11.543Z,18.60
2022-12-19T07:38:14.894Z,19.20
2022-12-19T07:43:17.015Z,16.10
2022-12-19T07:48:19.055Z,14.43
2022-12-19T07:53:21.163Z,14.32
2022-12-19T07:58:23.452Z,14.13
2022-12-19T08:03:25.920Z,12.93
2022-12-19T08:08:29.992Z,13.77
2022-12-19T08:13:37.968Z,13.30
2022-12-19T08:18:41.893Z,12.77
2022-12-19T08:23:45.953Z,11.73
2022-12-19T08:28:48.255Z,10.65
2022-12-19T08:33:51.369Z,13.90
2022-12-19T08:38:54.580Z,11.68
2022-12-19T08:43:56.675Z,13.00
2022-12-19T08:48:58.867Z,13.20
2022-12-19T08:54:02.018Z,12.68
2022-12-19T08:59:09.794Z,11.20
2022-12-19T09:06:00.193Z,12.47
2022-12-19T09:09:37.110Z,10.80
2022-12-19T09:14:39.258Z,11.25
2022-12-19T09:19:43.047Z,12.55
2022-12-19T09:24:50.040Z,12.37
2022-12-19T09:29:52.044Z,11.10
2022-12-19T09:34:54.142Z,12.05
2022-12-19T09:39:58.900Z,12.63
2022-12-19T09:45:31.252Z,13.35
2022-12-19T09:51:10.577Z,12.85
2022-12-19T09:56:15.871Z,11.60
2022-12-19T10:01:30.721Z,12.20
2022-12-19T10:07:14.005Z,13.40
2022-12-19T10:12:46.249Z,12.05
2022-12-19T10:18:18.529Z,12.73
2022-12-19T10:23:38.902Z,12.75
2022-12-19T10:28:56.140Z,12.30
2022-12-19T10:34:07.181Z,12.03
2022-12-19T10:39:33.303Z,13.18
2022-12-19T10:44:40.045Z,12.18
2022-12-19T10:49:42.343Z,12.63
2022-12-19T10:54:44.560Z,13.90
2022-12-19T11:00:00.391Z,13.65
2022-12-19T11:05:04.552Z,14.45
2022-12-19T11:15:49.500Z,16.00
2022-12-19T11:21:32.038Z,14.02
2022-12-19T11:29:30.008Z,14.60
2022-12-19T11:30:25.556Z,14.40
2022-12-19T11:33:18.185Z,14.15
2022-12-19T11:38:37.356Z,13.43
2022-12-19T11:44:11.846Z,13.40
2022-12-19T11:49:19.773Z,13.97
2022-12-19T11:54:27.151Z,14.93
2022-12-19T11:59:35.562Z,14.35
2022-12-19T12:05:45.691Z,13.73
2022-12-19T12:18:40.774Z,13.52
2022-12-19T12:26:41.311Z,14.20
2022-12-19T12:31:20.455Z,13.43
2022-12-19T12:31:42.622Z,13.43
2022-12-19T12:35:51.817Z,14.73
2022-12-19T12:39:14.534Z,14.17
2022-12-19T12:44:22.650Z,13.80
2022-12-19T12:49:55.520Z,14.60
2022-12-19T12:54:58.498Z,13.95
2022-12-19T13:00:17.676Z,12.80
2022-12-19T13:05:22.707Z,13.23
2022-12-19T13:10:28.414Z,13.38
2022-12-19T13:15:32.694Z,12.87
2022-12-19T13:20:48.135Z,12.55
2022-12-19T13:25:55.126Z,12.05
2022-12-19T13:31:19.722Z,11.63
2022-12-19T13:39:50.749Z,11.87
2022-12-19T13:42:40.778Z,13.82
2022-12-19T13:47:45.128Z,11.90
2022-12-19T13:52:51.182Z,12.70
2022-12-19T13:57:54.633Z,12.65
2022-12-19T14:02:59.337Z,14.05
2022-12-19T14:08:05.300Z,15.77
2022-12-19T14:13:49.216Z,13.32
2022-12-19T14:18:56.948Z,13.32
2022-12-19T14:24:17.863Z,13.10
2022-12-19T14:30:26.710Z,13.73
2022-12-19T14:36:05.320Z,14.10
2022-12-19T14:40:28.084Z,14.23
2022-12-19T14:54:03.375Z,13.30
2022-12-19T14:54:41.626Z,14.77
2022-12-19T14:57:02.296Z,12.98
2022-12-19T15:02:07.371Z,12.90
2022-12-19T15:07:31.824Z,12.10
2022-12-19T15:14:49.483Z,13.88
2022-12-19T15:18:37.268Z,14.67
2022-12-19T15:23:39.710Z,16.43
2022-12-19T15:28:46.241Z,15.75
2022-12-19T15:34:23.451Z,15.48
2022-12-19T15:39:10.290Z,14.30
2022-12-19T15:44:24.785Z,14.20
2022-12-19T15:49:26.840Z,14.87
2022-12-19T15:59:52.017Z,15.73
2022-12-19T16:04:59.937Z,15.25
2022-12-19T16:10:06.412Z,14.47
2022-12-19T16:15:24.878Z,14.03
2022-12-19T16:20:29.822Z,15.20
2022-12-19T16:25:45.888Z,15.85
2022-12-19T16:30:50.425Z,14.77
2022-12-19T16:36:04.113Z,19.50
2022-12-19T16:41:17.401Z,15.10
2022-12-19T16:46:23.494Z,16.10
2022-12-19T16:51:27.753Z,15.95
2022-12-19T16:56:36.431Z,14.57
2022-12-19T17:01:38.562Z,14.17
2022-12-19T17:06:41.181Z,15.77
2022-12-19T17:11:45.982Z,14.60
2022-12-19T17:16:48.393Z,13.70
2022-12-19T17:21:51.895Z,15.57
2022-12-19T17:26:53.962Z,13.88
2022-12-19T17:31:56.085Z,15.45
2022-12-19T17:37:00.503Z,14.70
2022-12-19T17:42:36.853Z,13.82
2022-12-19T17:47:39.610Z,13.57
2022-12-19T17:52:41.688Z,14.03
2022-12-19T17:57:43.802Z,14.97
2022-12-19T18:02:48.112Z,15.52
2022-12-19T18:07:50.739Z,14.50
2022-12-19T18:12:53.885Z,14.13
2022-12-19T18:17:57.303Z,13.57
2022-12-19T18:23:00.731Z,13.10
2022-12-19T18:28:02.797Z,13.43
2022-12-19T18:33:06.320Z,13.98
2022-12-19T18:38:12.863Z,14.35
2022-12-19T18:43:16.570Z,13.43
2022-12-19T18:48:36.940Z,13.93
2022-12-19T18:53:39.114Z,14.45
2022-12-19T18:58:41.436Z,15.25
2022-12-19T19:03:57.535Z,14.47
2022-12-19T19:09:00.291Z,15.18
2022-12-19T19:14:02.359Z,14.63
2022-12-19T19:19:07.241Z,13.30
2022-12-19T19:24:14.591Z,14.75
2022-12-19T19:29:18.986Z,16.10
2022-12-19T19:34:28.177Z,13.87
2022-12-19T19:39:33.103Z,13.93
2022-12-19T19:44:35.153Z,15.10
2022-12-19T19:49:37.255Z,14.75
2022-12-19T19:54:39.389Z,15.43
2022-12-19T19:59:41.537Z,15.88
2022-12-19T20:04:43.975Z,15.85
2022-12-19T20:09:46.363Z,16.63
2022-12-19T20:14:48.434Z,16.08
2022-12-19T20:19:51.441Z,15.73
2022-12-19T20:24:54.200Z,15.53
2022-12-19T20:29:56.804Z,16.47
2022-12-19T20:34:59.227Z,16.48
2022-12-19T20:40:01.336Z,16.60
2022-12-19T20:45:03.637Z,16.20
2022-12-19T20:50:07.593Z,16.75
2022-12-19T20:55:09.951Z,15.65
2022-12-19T21:00:14.770Z,15.17
2022-12-19T21:05:17.364Z,15.15
2022-12-19T21:10:20.509Z,15.27
2022-12-19T21:15:23.141Z,16.40
2022-12-19T21:20:29.515Z,16.20
2022-12-19T21:25:36.143Z,16.75
2022-12-19T21:30:38.223Z,16.25
2022-12-19T21:35:40.332Z,16.50
2022-12-19T21:40:42.362Z,16.73
2022-12-19T21:45:44.486Z,16.87
2022-12-19T21:50:55.554Z,15.93
2022-12-19T21:56:25.339Z,16.45
2022-12-19T22:01:28.131Z,16.62
2022-12-19T22:06:31.951Z,16.67
2022-12-19T22:11:35.820Z,16.67
2022-12-19T22:16:38.607Z,17.35
2022-12-19T22:21:40.702Z,17.35
2022-12-19T22:26:43.311Z,18.00
2022-12-19T22:31:46.101Z,18.12
2022-12-19T22:36:49.758Z,17.67
2022-12-19T22:41:51.904Z,17.73
2022-12-19T22:46:53.941Z,16.62
2022-12-19T22:51:56.017Z,17.37
2022-12-19T22:56:58.046Z,17.57
2022-12-19T23:02:00.329Z,18.57
2022-12-19T23:07:02.501Z,17.73
2022-12-19T23:12:04.697Z,17.12
2022-12-19T23:17:06.824Z,16.87
2022-12-19T23:22:09.025Z,18.87
2022-12-19T23:27:11.367Z,18.77
2022-12-19T23:32:13.439Z,18.30
2022-12-19T23:37:15.480Z,17.80
2022-12-19T23:42:17.578Z,18.12
2022-12-19T23:47:19.779Z,17.73
2022-12-19T23:52:22.356Z,17.73
2022-12-19T23:57:24.379Z,17.48
